createdAt,value
2022-09-07T00:00:22.189Z,18.05
2022-09-07T00:02:48.840Z,18.07
2022-09-07T00:05:15.598Z,18.01
2022-09-07T00:07:42.207Z,18.00
2022-09-07T00:10:09.448Z,17.87
2022-09-07T00:12:36.081Z,17.75
2022-09-07T00:15:04.165Z,17.75
2022-09-07T00:17:30.782Z,17.68
2022-09-07T00:19:57.481Z,17.77
2022-09-07T00:22:24.175Z,17.70
2022-09-07T00:24:51.000Z,17.72
2022-09-07T00:27:17.655Z,17.74
2022-09-07T00:29:44.691Z,17.82
2022-09-07T00:32:11.714Z,17.71
2022-09-07T00:34:38.370Z,17.65
2022-09-07T00:37:05.174Z,17.58
2022-09-07T00:39:31.992Z,17.55
2022-09-07T00:41:58.796Z,17.57
2022-09-07T00:44:46.502Z,17.60
2022-09-07T00:47:23.794Z,17.61
2022-09-07T00:49:57.719Z,17.61
2022-09-07T00:52:27.130Z,17.62
2022-09-07T00:54:58.056Z,17.55
2022-09-07T00:57:24.690Z,17.51
2022-09-07T00:59:53.008Z,17.41
2022-09-07T01:02:21.009Z,17.33
2022-09-07T01:04:52.737Z,17.38
2022-09-07T01:07:19.446Z,17.41
2022-09-07T01:09:47.304Z,17.45
2022-09-07T01:12:14.698Z,17.46
2022-09-07T01:14:47.042Z,17.45
2022-09-07T01:17:42.877Z,17.47
2022-09-07T01:20:09.503Z,17.44
2022-09-07T01:23:10.526Z,17.40
2022-09-07T01:26:20.772Z,17.41
2022-09-07T01:28:54.236Z,17.44
2022-09-07T01:31:20.801Z,17.46
2022-09-07T01:34:10.762Z,17.41
2022-09-07T01:36:59.294Z,17.35
2022-09-07T01:39:36.236Z,17.40
2022-09-07T01:42:10.461Z,17.42
2022-09-07T01:44:47.213Z,17.21
2022-09-07T01:47:33.523Z,17.26
2022-09-07T01:50:21.153Z,17.23
2022-09-07T01:52:58.349Z,17.30
2022-09-07T01:55:25.185Z,17.35
2022-09-07T01:58:19.748Z,17.36
2022-09-07T02:00:55.112Z,17.30
2022-09-07T02:03:30.785Z,17.30
2022-09-07T02:06:05.611Z,17.30
2022-09-07T02:08:37.700Z,17.29
2022-09-07T02:11:13.507Z,17.25
2022-09-07T02:14:00.392Z,17.23
2022-09-07T02:16:29.698Z,17.25
2022-09-07T02:19:01.230Z,17.28
2022-09-07T02:21:39.865Z,17.29
2022-09-07T02:24:13.661Z,17.27
2022-09-07T02:26:41.873Z,17.31
2022-09-07T02:29:08.589Z,17.29
2022-09-07T02:31:35.297Z,17.31
2022-09-07T02:34:04.571Z,17.29
2022-09-07T02:36:36.625Z,17.28
2022-09-07T02:39:03.416Z,17.24
2022-09-07T02:41:38.819Z,17.23
2022-09-07T02:44:10.689Z,17.24
2022-09-07T02:47:01.141Z,17.24
2022-09-07T02:49:55.223Z,17.23
2022-09-07T02:52:43.932Z,17.18
2022-09-07T02:55:13.416Z,17.16
2022-09-07T02:57:40.051Z,17.15
2022-09-07T03:00:12.453Z,17.11
2022-09-07T03:02:51.331Z,17.11
2022-09-07T03:05:28.776Z,17.08
2022-09-07T03:08:04.193Z,17.00
2022-09-07T03:10:31.898Z,16.93
2022-09-07T03:12:58.622Z,16.88
2022-09-07T03:15:28.458Z,16.87
2022-09-07T03:17:55.269Z,16.83
2022-09-07T03:20:23.108Z,16.83
2022-09-07T03:22:51.512Z,16.81
2022-09-07T03:25:19.504Z,16.78
2022-09-07T03:27:46.194Z,16.75
2022-09-07T03:30:13.395Z,16.74
2022-09-07T03:32:43.408Z,16.71
2022-09-07T03:35:10.392Z,16.72
2022-09-07T03:37:37.657Z,16.67
2022-09-07T03:40:09.736Z,16.67
2022-09-07T03:42:36.835Z,16.63
2022-09-07T03:45:04.409Z,16.63
2022-09-07T03:47:31.224Z,16.57
2022-09-07T03:49:57.853Z,16.57
2022-09-07T03:52:24.423Z,16.60
2022-09-07T03:54:51.123Z,16.58
2022-09-07T03:57:20.213Z,16.53
2022-09-07T03:59:47.243Z,16.51
2022-09-07T04:02:14.272Z,16.50
2022-09-07T04:04:42.860Z,16.50
2022-09-07T04:07:09.793Z,16.49
2022-09-07T04:09:36.465Z,16.48
2022-09-07T04:12:03.444Z,16.47
2022-09-07T04:14:30.123Z,16.45
2022-09-07T04:16:59.724Z,16.46
2022-09-07T04:19:26.538Z,16.43
2022-09-07T04:21:53.354Z,16.41
2022-09-07T04:24:20.001Z,16.35
2022-09-07T04:26:46.742Z,16.27
2022-09-07T04:29:14.578Z,16.24
2022-09-07T04:31:41.282Z,16.26
2022-09-07T04:34:08.005Z,16.26
2022-09-07T04:36:37.624Z,16.31
2022-09-07T04:39:05.436Z,16.23
2022-09-07T04:41:33.426Z,16.27
2022-09-07T04:44:01.881Z,16.26
2022-09-07T04:46:38.642Z,16.26
2022-09-07T04:49:08.552Z,16.30
2022-09-07T04:51:36.451Z,16.30
2022-09-07T04:54:04.276Z,16.34
2022-09-07T04:56:32.784Z,16.37
2022-09-07T04:59:01.371Z,16.40
2022-09-07T05:01:28.619Z,16.43
2022-09-07T05:03:55.392Z,16.44
2022-09-07T05:06:23.353Z,16.45
2022-09-07T05:08:52.608Z,16.45
2022-09-07T05:11:23.803Z,16.41
2022-09-07T05:13:53.253Z,16.40
2022-09-07T05:16:23.458Z,16.43
2022-09-07T05:18:52.129Z,16.47
2022-09-07T05:21:24.524Z,16.51
2022-09-07T05:23:54.203Z,16.54
2022-09-07T05:26:22.824Z,16.55
2022-09-07T05:28:50.442Z,16.56
2022-09-07T05:31:23.016Z,16.60
2022-09-07T05:36:41.550Z,16.67
2022-09-07T05:39:08.813Z,16.73
2022-09-07T05:41:35.736Z,16.77
2022-09-07T05:46:53.039Z,16.86
2022-09-07T05:49:19.656Z,16.91
2022-09-07T05:51:47.085Z,16.96
2022-09-07T05:54:14.161Z,16.99
2022-09-07T05:56:40.824Z,16.97
2022-09-07T05:59:07.432Z,16.95
2022-09-07T06:01:35.632Z,16.95
2022-09-07T06:04:02.633Z,16.97
2022-09-07T06:06:29.479Z,16.95
2022-09-07T06:08:57.773Z,17.06
2022-09-07T06:11:27.095Z,17.09
2022-09-07T06:13:53.785Z,17.09
2022-09-07T06:16:20.869Z,17.16
2022-09-07T06:18:49.644Z,17.19
2022-09-07T06:21:21.965Z,17.29
2022-09-07T06:23:49.994Z,17.34
2022-09-07T06:26:18.186Z,17.39
2022-09-07T06:28:49.449Z,17.44
2022-09-07T06:31:21.666Z,17.48
2022-09-07T06:33:49.153Z,17.51
2022-09-07T06:36:20.067Z,17.57
2022-09-07T06:38:47.090Z,17.61
2022-09-07T06:44:08.961Z,17.69
2022-09-07T06:49:23.656Z,17.74
2022-09-07T06:51:50.455Z,17.82
2022-09-07T06:57:09.317Z,17.87
2022-09-07T06:59:37.401Z,17.94
2022-09-07T07:02:05.486Z,17.96
2022-09-07T07:04:35.132Z,18.00
2022-09-07T07:07:04.576Z,18.00
2022-09-07T07:09:31.173Z,18.00
2022-09-07T07:11:57.789Z,18.05
2022-09-07T07:14:27.474Z,18.14
2022-09-07T07:16:55.840Z,18.28
2022-09-07T07:19:22.479Z,18.24
2022-09-07T07:22:10.745Z,18.29
2022-09-07T07:24:35.674Z,18.50
2022-09-07T07:27:02.340Z,18.51
2022-09-07T07:29:28.960Z,18.63
2022-09-07T07:31:55.969Z,18.99
2022-09-07T07:34:23.163Z,19.19
2022-09-07T07:36:49.784Z,19.11
2022-09-07T07:42:03.466Z,19.08
2022-09-07T07:44:32.283Z,18.94
2022-09-07T07:46:59.134Z,18.86
2022-09-07T07:49:25.842Z,18.78
2022-09-07T07:54:45.992Z,18.79
2022-09-07T07:57:12.824Z,18.86
2022-09-07T07:59:39.515Z,18.95
2022-09-07T08:02:08.721Z,18.90
2022-09-07T08:04:35.979Z,19.48
2022-09-07T08:07:10.772Z,20.55
2022-09-07T08:09:41.918Z,20.57
2022-09-07T08:12:13.233Z,20.73
2022-09-07T08:14:43.175Z,20.82
2022-09-07T08:17:11.688Z,20.81
2022-09-07T08:19:39.382Z,20.59
2022-09-07T08:22:07.456Z,20.72
2022-09-07T08:24:36.702Z,20.92
2022-09-07T08:27:03.570Z,21.02
2022-09-07T08:29:34.657Z,20.88
2022-09-07T08:32:03.838Z,20.59
2022-09-07T08:34:30.548Z,20.37
2022-09-07T08:36:57.125Z,20.13
2022-09-07T08:39:23.697Z,20.13
2022-09-07T08:42:37.763Z,20.17
2022-09-07T08:45:34.867Z,20.17
2022-09-07T08:48:05.195Z,20.18
2022-09-07T08:50:45.954Z,20.44
2022-09-07T08:53:15.349Z,20.99
2022-09-07T08:55:47.856Z,21.28
2022-09-07T08:58:45.347Z,21.53
2022-09-07T09:01:36.021Z,22.74
2022-09-07T09:04:21.303Z,23.50
2022-09-07T09:07:28.325Z,23.81
2022-09-07T09:10:36.337Z,23.16
2022-09-07T09:13:38.185Z,22.69
2022-09-07T09:16:20.516Z,22.78
2022-09-07T09:19:02.097Z,22.54
2022-09-07T09:21:29.090Z,22.09
2022-09-07T09:24:02.052Z,22.21
2022-09-07T09:26:34.136Z,22.84
2022-09-07T09:29:17.396Z,24.48
2022-09-07T09:31:44.127Z,24.93
2022-09-07T09:34:16.274Z,24.49
2022-09-07T09:36:47.462Z,23.84
2022-09-07T09:39:37.027Z,24.32
2022-09-07T09:42:23.076Z,24.82
2022-09-07T09:44:50.453Z,25.21
2022-09-07T09:47:32.729Z,26.09
2022-09-07T09:53:32.808Z,27.30
2022-09-07T09:56:01.756Z,26.07
2022-09-07T10:01:33.564Z,25.52
2022-09-07T10:04:31.004Z,24.65
2022-09-07T10:07:08.242Z,24.81
2022-09-07T10:09:41.007Z,25.22
2022-09-07T10:12:22.589Z,26.16
2022-09-07T10:14:49.185Z,25.61
2022-09-07T10:17:27.804Z,24.96
2022-09-07T10:20:00.742Z,24.63
2022-09-07T10:22:38.603Z,25.01
2022-09-07T10:25:41.000Z,26.22
2022-09-07T10:28:11.376Z,25.11
2022-09-07T10:30:40.968Z,25.61
2022-09-07T10:33:19.220Z,25.28
2022-09-07T10:36:13.632Z,26.51
2022-09-07T10:38:48.085Z,27.92
2022-09-07T10:41:17.388Z,27.01
2022-09-07T10:43:50.259Z,25.79
2022-09-07T10:53:39.439Z,24.79
2022-09-07T10:56:24.175Z,25.64
2022-09-07T10:59:08.360Z,26.67
2022-09-07T11:01:57.498Z,26.91
2022-09-07T11:05:05.824Z,27.97
2022-09-07T11:07:56.912Z,27.27
2022-09-07T11:10:32.891Z,28.36
2022-09-07T11:13:04.566Z,29.20
2022-09-07T11:15:48.106Z,29.64
2022-09-07T11:18:26.888Z,29.80
2022-09-07T11:20:56.606Z,29.25
2022-09-07T11:23:43.406Z,28.39
2022-09-07T11:26:29.001Z,27.59
2022-09-07T11:32:12.901Z,26.30
2022-09-07T11:34:47.728Z,26.43
2022-09-07T11:37:59.280Z,27.08
2022-09-07T11:40:39.494Z,27.51
2022-09-07T11:43:31.291Z,27.05
2022-09-07T11:46:05.066Z,26.54
2022-09-07T11:48:40.053Z,26.06
2022-09-07T11:51:15.330Z,27.04
2022-09-07T11:53:47.562Z,27.10
2022-09-07T11:56:26.437Z,26.64
2022-09-07T11:59:12.046Z,27.75
2022-09-07T12:01:48.097Z,27.24
2022-09-07T12:04:36.352Z,27.28
2022-09-07T12:07:11.751Z,27.58
2022-09-07T12:09:58.523Z,28.36
2022-09-07T12:12:43.707Z,28.32
2022-09-07T12:15:35.235Z,27.27
2022-09-07T12:18:28.087Z,27.01
2022-09-07T12:20:59.691Z,27.97
2022-09-07T12:23:36.511Z,27.48
2022-09-07T12:26:37.202Z,26.30
2022-09-07T12:29:05.171Z,26.20
2022-09-07T12:31:57.789Z,25.82
2022-09-07T12:34:31.578Z,25.26
2022-09-07T12:36:58.932Z,25.34
2022-09-07T12:39:32.314Z,25.58
2022-09-07T12:45:28.427Z,25.66
2022-09-07T12:48:15.372Z,25.87
2022-09-07T12:51:16.077Z,26.15
2022-09-07T12:54:27.417Z,26.58
2022-09-07T13:00:18.276Z,26.53
2022-09-07T13:06:16.623Z,26.26
2022-09-07T13:08:49.167Z,25.73
2022-09-07T13:11:33.269Z,25.52
2022-09-07T13:14:15.821Z,25.20
2022-09-07T13:19:46.611Z,25.58
2022-09-07T13:22:31.529Z,26.04
2022-09-07T13:25:00.587Z,26.07
2022-09-07T13:27:30.093Z,26.11
2022-09-07T13:30:02.127Z,26.12
2022-09-07T13:35:21.643Z,25.59
2022-09-07T13:38:01.809Z,25.59
2022-09-07T13:40:33.738Z,25.34
2022-09-07T13:43:03.018Z,25.27
2022-09-07T13:45:49.546Z,25.16
2022-09-07T13:48:37.662Z,25.14
2022-09-07T13:51:24.899Z,25.05
2022-09-07T13:54:15.149Z,25.01
2022-09-07T13:57:12.157Z,24.80
2022-09-07T13:59:41.737Z,24.76
2022-09-07T14:02:22.984Z,24.72
2022-09-07T14:04:51.892Z,24.68
2022-09-07T14:07:24.565Z,24.62
2022-09-07T14:10:09.941Z,24.44
2022-09-07T14:12:47.052Z,24.43
2022-09-07T14:15:25.527Z,24.29
2022-09-07T14:18:06.737Z,24.26
2022-09-07T14:20:42.351Z,24.15
2022-09-07T14:23:21.293Z,24.01
2022-09-07T14:28:38.377Z,23.77
2022-09-07T14:31:08.828Z,23.80
2022-09-07T14:33:35.557Z,23.79
2022-09-07T14:36:17.844Z,23.62
2022-09-07T14:39:05.843Z,23.52
2022-09-07T14:41:34.782Z,23.53
2022-09-07T14:44:01.589Z,23.40
2022-09-07T14:46:29.267Z,23.37
2022-09-07T14:49:02.527Z,23.42
2022-09-07T14:51:36.251Z,23.32
2022-09-07T14:54:07.990Z,23.32
2022-09-07T14:56:38.035Z,23.35
2022-09-07T14:59:40.521Z,23.33
2022-09-07T15:02:23.928Z,23.27
2022-09-07T15:05:18.139Z,23.20
2022-09-07T15:07:50.928Z,23.01
2022-09-07T15:10:20.600Z,22.84
2022-09-07T15:12:49.285Z,22.81
2022-09-07T15:15:37.798Z,22.76
2022-09-07T15:18:25.881Z,22.77
2022-09-07T15:20:53.033Z,22.77
2022-09-07T15:23:20.205Z,22.79
2022-09-07T15:25:53.550Z,22.76
2022-09-07T15:34:16.419Z,22.62
2022-09-07T15:36:48.544Z,22.69
2022-09-07T15:39:34.460Z,22.62
2022-09-07T15:42:59.556Z,22.66
2022-09-07T15:44:50.296Z,22.66
2022-09-07T15:50:07.326Z,22.65
2022-09-07T15:52:34.060Z,22.54
2022-09-07T15:55:00.612Z,22.55
2022-09-07T15:57:48.695Z,22.54
2022-09-07T16:00:16.148Z,22.56
2022-09-07T16:05:31.415Z,22.68
2022-09-07T16:10:45.033Z,22.39
2022-09-07T16:13:16.670Z,22.39
2022-09-07T16:15:45.777Z,22.33
2022-09-07T16:18:16.554Z,22.31
2022-09-07T16:20:43.552Z,22.17
2022-09-07T16:23:13.707Z,22.13
2022-09-07T16:25:42.364Z,22.08
2022-09-07T16:28:09.715Z,22.06
2022-09-07T16:30:41.803Z,21.93
2022-09-07T16:33:08.439Z,22.00
2022-09-07T16:35:35.112Z,21.96
2022-09-07T16:40:50.091Z,21.80
2022-09-07T16:43:17.118Z,21.82
2022-09-07T16:48:35.325Z,21.85
2022-09-07T16:51:03.585Z,21.90
2022-09-07T16:53:32.770Z,21.93
2022-09-07T16:56:11.057Z,21.92
2022-09-07T16:58:40.548Z,21.85
2022-09-07T17:01:12.054Z,21.86
2022-09-07T17:03:42.673Z,21.83
2022-09-07T17:06:12.050Z,21.81
2022-09-07T17:08:39.524Z,21.77
2022-09-07T17:11:13.879Z,21.72
2022-09-07T17:13:41.870Z,21.68
2022-09-07T17:16:14.428Z,21.60
2022-09-07T17:21:31.238Z,21.47
2022-09-07T17:24:00.145Z,21.38
2022-09-07T17:26:27.406Z,21.30
2022-09-07T17:28:57.018Z,21.26
2022-09-07T17:34:19.569Z,21.10
2022-09-07T17:36:46.314Z,20.97
2022-09-07T17:39:15.978Z,20.99
2022-09-07T17:41:44.979Z,20.96
2022-09-07T17:44:11.786Z,20.92
2022-09-07T17:46:38.380Z,20.89
2022-09-07T17:49:07.129Z,20.86
2022-09-07T17:51:33.796Z,20.82
2022-09-07T17:54:09.574Z,20.75
2022-09-07T17:56:37.086Z,20.68
2022-09-07T18:01:50.571Z,20.61
2022-09-07T18:04:17.360Z,20.57
2022-09-07T18:06:43.956Z,20.53
2022-09-07T18:09:11.650Z,20.44
2022-09-07T18:11:46.684Z,20.38
2022-09-07T18:14:15.131Z,20.29
2022-09-07T18:16:43.722Z,20.10
2022-09-07T18:19:11.703Z,20.02
2022-09-07T18:21:41.040Z,19.89
2022-09-07T18:24:13.495Z,19.80
2022-09-07T18:26:40.878Z,19.73
2022-09-07T18:29:25.921Z,19.70
2022-09-07T18:31:55.491Z,19.69
2022-09-07T18:34:22.431Z,19.69
2022-09-07T18:36:49.014Z,19.68
2022-09-07T18:39:15.766Z,19.56
2022-09-07T18:41:42.411Z,19.41
2022-09-07T18:46:56.067Z,19.30
2022-09-07T18:49:22.652Z,19.23
2022-09-07T18:54:35.782Z,19.19
2022-09-07T18:57:02.401Z,19.03
2022-09-07T18:59:29.844Z,19.04
2022-09-07T19:02:00.105Z,19.10
2022-09-07T19:07:17.787Z,19.08
2022-09-07T19:09:44.357Z,19.08
2022-09-07T19:12:10.948Z,19.02
2022-09-07T19:14:37.663Z,18.99
2022-09-07T19:17:04.315Z,18.96
2022-09-07T19:19:30.977Z,18.91
2022-09-07T19:22:00.699Z,18.88
2022-09-07T19:24:28.332Z,18.89
2022-09-07T19:27:00.054Z,18.83
2022-09-07T19:29:27.650Z,18.72
2022-09-07T19:32:07.725Z,18.67
2022-09-07T19:34:42.808Z,18.58
2022-09-07T19:37:11.864Z,18.56
2022-09-07T19:39:38.836Z,18.46
2022-09-07T19:42:06.125Z,18.41
2022-09-07T19:44:32.875Z,18.38
2022-09-07T19:47:00.459Z,18.31
2022-09-07T19:49:27.732Z,18.14
2022-09-07T19:51:54.341Z,18.10
2022-09-07T19:54:20.964Z,18.02
2022-09-07T19:56:47.552Z,17.98
2022-09-07T19:59:14.570Z,17.94
2022-09-07T20:01:46.162Z,17.90
2022-09-07T20:04:19.590Z,17.85
2022-09-07T20:06:48.086Z,17.80
2022-09-07T20:09:14.646Z,17.74
2022-09-07T20:11:46.094Z,17.71
2022-09-07T20:14:13.714Z,17.67
2022-09-07T20:16:41.668Z,17.62
2022-09-07T20:19:10.949Z,17.56
2022-09-07T20:21:37.537Z,17.53
2022-09-07T20:24:04.494Z,17.50
2022-09-07T20:26:34.130Z,17.44
2022-09-07T20:31:47.417Z,17.29
2022-09-07T20:34:14.375Z,17.24
2022-09-07T20:36:41.493Z,17.22
2022-09-07T20:39:08.565Z,17.21
2022-09-07T20:41:35.336Z,17.16
2022-09-07T20:44:03.914Z,17.15
2022-09-07T20:46:30.994Z,17.10
2022-09-07T20:48:57.983Z,17.09
2022-09-07T20:51:24.847Z,17.08
2022-09-07T20:53:51.505Z,17.04
2022-09-07T20:56:24.473Z,17.01
2022-09-07T20:59:00.251Z,16.88
2022-09-07T21:01:28.768Z,16.76
2022-09-07T21:03:57.970Z,16.69
2022-09-07T21:06:26.674Z,16.69
2022-09-07T21:08:54.769Z,16.73
2022-09-07T21:11:25.071Z,16.73
2022-09-07T21:14:07.182Z,16.74
2022-09-07T21:16:35.045Z,16.75
2022-09-07T21:19:03.242Z,16.75
2022-09-07T21:21:37.756Z,16.76
2022-09-07T21:24:05.855Z,16.76
2022-09-07T21:26:32.942Z,16.75
2022-09-07T21:29:05.204Z,16.71
2022-09-07T21:31:33.678Z,16.64
2022-09-07T21:34:01.776Z,16.64
2022-09-07T21:36:28.986Z,16.67
2022-09-07T21:38:55.875Z,16.67
2022-09-07T21:41:24.280Z,16.66
2022-09-07T21:44:00.325Z,16.64
2022-09-07T21:46:28.066Z,16.64
2022-09-07T21:48:56.084Z,16.57
2022-09-07T21:51:23.857Z,16.55
2022-09-07T21:53:59.382Z,16.53
2022-09-07T21:56:29.974Z,16.54
2022-09-07T21:58:59.054Z,16.55
2022-09-07T22:01:30.521Z,16.56
2022-09-07T22:04:02.581Z,16.56
2022-09-07T22:06:31.083Z,16.55
2022-09-07T22:08:58.768Z,16.54
2022-09-07T22:11:27.598Z,16.51
2022-09-07T22:14:00.486Z,16.50
2022-09-07T22:16:27.146Z,16.49
2022-09-07T22:18:54.644Z,16.45
2022-09-07T22:21:29.626Z,16.48
2022-09-07T22:23:58.358Z,16.48
2022-09-07T22:26:27.119Z,16.47
2022-09-07T22:28:54.330Z,16.46
2022-09-07T22:31:33.357Z,16.43
2022-09-07T22:34:01.809Z,16.43
2022-09-07T22:36:32.398Z,16.41
2022-09-07T22:39:01.853Z,16.39
2022-09-07T22:41:33.681Z,16.35
2022-09-07T22:44:00.976Z,16.35
2022-09-07T22:46:30.109Z,16.34
2022-09-07T22:48:58.525Z,16.31
2022-09-07T22:51:28.168Z,16.32
2022-09-07T22:53:55.092Z,16.30
2022-09-07T22:56:27.821Z,16.20
2022-09-07T22:58:59.753Z,16.09
2022-09-07T23:01:28.334Z,16.02
2022-09-07T23:03:56.167Z,16.01
2022-09-07T23:06:23.866Z,16.06
2022-09-07T23:08:51.734Z,16.07
2022-09-07T23:11:19.505Z,16.11
2022-09-07T23:13:49.586Z,16.09
2022-09-07T23:16:16.173Z,16.07
2022-09-07T23:18:43.256Z,16.10
2022-09-07T23:21:10.563Z,16.09
2022-09-07T23:23:37.270Z,16.06
2022-09-07T23:26:05.147Z,16.06
2022-09-07T23:28:32.904Z,16.04
2022-09-07T23:30:59.610Z,16.06
2022-09-07T23:33:27.100Z,16.07
2022-09-07T23:36:01.905Z,16.13
2022-09-07T23:38:29.322Z,16.16
2022-09-07T23:40:58.209Z,16.21
2022-09-07T23:43:30.237Z,16.25
2022-09-07T23:45:57.734Z,16.28
2022-09-07T23:48:24.414Z,16.26
2022-09-07T23:50:54.377Z,16.25
2022-09-07T23:53:22.264Z,16.23
2022-09-07T23:55:53.134Z,16.24
2022-09-07T23:58:21.765Z,16.25
